Time;durP1;ratioP1;P1;durP2;ratioP2;P2;SDS_P1;SDS_P2;PMS_P1;PMS_P2;Temp;Humidity;BMP_temperature;BMP_pressure;BME280_temperature;BME280_humidity;BME280_pressure;Samples;Min_cycle;Max_cycle;Signal;HPM_P1;HPM_P2
2023/11/25 00:00:27;;;;;;;4.73;1.70;;;5.20;99.90;;;;;;5053722;28;20697;-78
2023/11/25 00:02:53;;;;;;;5.53;2.80;;;5.20;99.90;;;;;;5063170;28;20191;-78
2023/11/25 00:05:19;;;;;;;7.07;2.00;;;5.20;99.90;;;;;;5062870;28;20643;-78
2023/11/25 00:07:45;;;;;;;5.33;2.30;;;5.10;99.90;;;;;;5062455;28;20217;-77
2023/11/25 00:10:12;;;;;;;3.72;1.63;;;5.10;99.90;;;;;;5069544;28;20610;-77
2023/11/25 00:12:38;;;;;;;4.60;1.65;;;5.10;99.90;;;;;;5069460;28;20165;-76
2023/11/25 00:15:05;;;;;;;3.45;1.60;;;5.10;99.90;;;;;;5068964;28;20295;-76
2023/11/25 00:17:31;;;;;;;5.68;1.90;;;5.10;99.90;;;;;;5057265;28;20235;-77
2023/11/25 00:19:57;;;;;;;4.53;1.60;;;5.10;99.90;;;;;;5050519;28;20177;-76
2023/11/25 00:22:26;;;;;;;3.08;1.27;;;5.10;99.90;;;;;;5060004;28;20185;-76
2023/11/25 00:24:52;;;;;;;5.60;1.60;;;5.10;99.90;;;;;;5049817;28;20205;-76
2023/11/25 00:27:18;;;;;;;4.03;1.30;;;5.00;99.90;;;;;;5058005;28;20219;-77
2023/11/25 00:29:44;;;;;;;6.13;1.15;;;5.00;99.90;;;;;;5030289;28;20199;-77
2023/11/25 00:32:10;;;;;;;5.83;1.60;;;5.00;99.90;;;;;;5069225;28;20200;-77
2023/11/25 00:34:36;;;;;;;3.10;1.20;;;5.00;99.90;;;;;;5060863;28;20188;-77
2023/11/25 00:37:03;;;;;;;4.75;1.10;;;5.00;99.90;;;;;;5086160;28;20179;-76
2023/11/25 00:39:29;;;;;;;4.40;1.10;;;5.00;99.90;;;;;;5069369;28;20194;-77
2023/11/25 00:41:56;;;;;;;6.20;1.98;;;5.00;99.90;;;;;;5068884;28;20177;-77
2023/11/25 00:44:22;;;;;;;5.13;1.63;;;5.00;99.90;;;;;;5052348;28;20259;-77
2023/11/25 00:46:47;;;;;;;5.72;1.20;;;5.00;99.90;;;;;;5069288;28;20207;-77
2023/11/25 00:49:15;;;;;;;3.80;1.20;;;4.90;99.90;;;;;;5052533;28;20658;-77
2023/11/25 00:51:42;;;;;;;3.95;1.52;;;4.90;99.90;;;;;;5051964;28;20168;-77
2023/11/25 00:54:08;;;;;;;5.30;2.08;;;4.90;99.90;;;;;;5068362;28;20297;-76
2023/11/25 00:56:34;;;;;;;8.43;3.17;;;4.90;99.90;;;;;;5049143;28;20177;-77
2023/11/25 00:58:59;;;;;;;8.90;1.57;;;4.90;99.90;;;;;;5057173;28;20173;-77
2023/11/25 01:01:25;;;;;;;4.00;1.73;;;4.90;99.90;;;;;;5068764;28;20675;-76
2023/11/25 01:03:52;;;;;;;3.25;1.27;;;4.90;99.90;;;;;;5068748;28;20180;-76
2023/11/25 01:06:18;;;;;;;5.82;1.30;;;4.90;99.90;;;;;;5052511;28;20196;-77
2023/11/25 01:08:44;;;;;;;4.17;1.30;;;4.90;99.90;;;;;;5047128;28;20235;-77
2023/11/25 01:11:09;;;;;;;3.63;1.20;;;4.90;99.90;;;;;;5065293;28;20594;-76
2023/11/25 01:13:36;;;;;;;3.37;0.97;;;4.90;99.90;;;;;;5052079;28;20585;-76
2023/11/25 01:16:03;;;;;;;4.45;1.20;;;4.90;99.90;;;;;;5051803;28;20253;-77
2023/11/25 01:18:28;;;;;;;5.93;1.05;;;4.90;99.90;;;;;;5068623;28;20185;-77
2023/11/25 01:20:55;;;;;;;3.57;1.37;;;4.90;99.90;;;;;;5053430;28;20263;-77
2023/11/25 01:23:27;;;;;;;8.02;1.27;;;4.90;99.90;;;;;;5055279;28;20179;-77
2023/11/25 01:25:53;;;;;;;3.85;1.10;;;4.90;99.90;;;;;;5071975;28;20298;-77
2023/11/25 01:28:19;;;;;;;2.83;0.90;;;4.90;99.90;;;;;;5071975;28;20255;-77
2023/11/25 01:30:45;;;;;;;5.20;0.90;;;4.90;99.90;;;;;;5073317;28;20209;-77
2023/11/25 01:33:10;;;;;;;5.47;1.50;;;4.90;99.90;;;;;;5072128;28;20584;-77
2023/11/25 01:35:39;;;;;;;3.47;1.30;;;5.00;99.90;;;;;;5074939;28;20191;-77
2023/11/25 01:38:05;;;;;;;6.85;1.70;;;5.00;99.90;;;;;;5072044;28;20218;-77
2023/11/25 01:40:32;;;;;;;5.45;1.85;;;5.10;99.90;;;;;;5060364;28;20241;-76
2023/11/25 01:42:58;;;;;;;8.18;1.73;;;5.10;99.90;;;;;;5066616;28;20536;-76
2023/11/25 01:45:24;;;;;;;5.95;1.80;;;5.20;99.90;;;;;;5053154;28;20204;-77
2023/11/25 01:47:52;;;;;;;4.88;1.58;;;5.20;99.90;;;;;;5065431;28;20203;-77
2023/11/25 01:50:19;;;;;;;4.40;1.45;;;5.20;99.90;;;;;;5054716;28;20276;-77
2023/11/25 01:52:46;;;;;;;11.43;2.25;;;5.30;99.90;;;;;;5071717;28;20168;-77
2023/11/25 01:55:13;;;;;;;7.50;1.95;;;5.30;99.90;;;;;;5037847;28;20212;-77
2023/11/25 01:57:39;;;;;;;7.28;1.77;;;5.30;99.90;;;;;;5058346;28;20173;-77
2023/11/25 02:00:07;;;;;;;8.18;3.10;;;5.30;99.90;;;;;;5051809;28;20195;-77
2023/11/25 02:02:38;;;;;;;4.00;1.80;;;5.30;99.90;;;;;;5051566;28;20184;-77
2023/11/25 02:05:04;;;;;;;6.68;1.98;;;5.30;99.90;;;;;;5050589;28;20218;-77
2023/11/25 02:07:30;;;;;;;9.30;2.23;;;5.30;99.90;;;;;;5071128;28;20184;-77
2023/11/25 02:09:56;;;;;;;8.40;2.90;;;5.30;99.90;;;;;;5054515;28;20598;-77
2023/11/25 02:12:22;;;;;;;9.90;2.43;;;5.30;99.90;;;;;;5070503;28;20606;-77
2023/11/25 02:14:48;;;;;;;7.10;2.40;;;5.20;99.90;;;;;;5081693;28;20687;-76
2023/11/25 02:17:15;;;;;;;4.05;1.40;;;5.20;99.90;;;;;;5054442;28;21171;-77
2023/11/25 02:19:43;;;;;;;7.30;2.10;;;5.20;99.90;;;;;;5071393;28;20202;-77
2023/11/25 02:22:10;;;;;;;8.38;1.92;;;5.10;99.90;;;;;;5054217;28;20931;-77
2023/11/25 02:24:37;;;;;;;6.28;1.92;;;5.10;99.90;;;;;;5070832;28;20188;-77
2023/11/25 02:27:04;;;;;;;7.82;1.90;;;5.10;99.90;;;;;;5070956;28;20171;-77
2023/11/25 02:29:32;;;;;;;11.80;2.03;;;5.00;99.90;;;;;;5054247;28;20168;-77
2023/11/25 02:31:58;;;;;;;8.38;1.95;;;5.00;99.90;;;;;;5055464;28;20631;-77
2023/11/25 02:34:25;;;;;;;8.75;2.28;;;5.00;99.90;;;;;;5068974;28;20200;-77
2023/11/25 02:36:51;;;;;;;4.35;1.75;;;4.90;99.90;;;;;;5053841;28;20169;-77
2023/11/25 02:39:18;;;;;;;4.80;1.70;;;4.90;99.90;;;;;;5072163;28;20656;-76
2023/11/25 02:41:51;;;;;;;11.10;1.83;;;4.90;99.90;;;;;;5053878;28;20285;-77
2023/11/25 02:44:17;;;;;;;8.23;1.85;;;4.90;99.90;;;;;;5070716;28;20196;-77
2023/11/25 02:46:48;;;;;;;3.75;1.27;;;4.80;99.90;;;;;;5070768;28;20196;-76
2023/11/25 02:49:14;;;;;;;10.05;2.30;;;4.80;99.90;;;;;;5055988;28;20172;-76
2023/11/25 02:51:55;;;;;;;9.52;2.10;;;4.80;99.90;;;;;;5062332;28;20255;-77
2023/11/25 02:54:22;;;;;;;5.20;1.70;;;4.80;99.90;;;;;;5053276;28;20295;-76
2023/11/25 02:56:48;;;;;;;5.95;1.52;;;4.70;99.90;;;;;;5069788;28;20543;-76
2023/11/25 02:59:17;;;;;;;6.07;1.60;;;4.70;99.90;;;;;;5053544;28;20184;-77
2023/11/25 03:01:52;;;;;;;3.85;1.40;;;4.70;99.90;;;;;;5070206;28;20598;-76
2023/11/25 03:04:19;;;;;;;7.03;2.00;;;4.70;99.90;;;;;;5070105;28;20349;-76
2023/11/25 03:06:45;;;;;;;5.93;1.45;;;4.70;99.90;;;;;;5053475;28;20196;-76
2023/11/25 03:09:14;;;;;;;5.07;1.45;;;4.70;99.90;;;;;;5062356;28;20177;-76
2023/11/25 03:11:40;;;;;;;4.13;1.60;;;4.70;99.90;;;;;;5045236;28;20168;-76
2023/11/25 03:14:06;;;;;;;4.90;1.20;;;4.70;99.90;;;;;;5070140;28;20177;-77
2023/11/25 03:16:33;;;;;;;7.53;1.43;;;4.70;99.90;;;;;;5053212;28;20180;-77
2023/11/25 03:18:59;;;;;;;8.35;1.73;;;4.60;99.90;;;;;;5071180;28;20678;-77
2023/11/25 03:21:25;;;;;;;7.88;1.52;;;4.60;99.90;;;;;;5036623;28;20195;-77
2023/11/25 03:23:51;;;;;;;13.27;1.60;;;4.60;99.90;;;;;;5053546;28;20176;-77
2023/11/25 03:26:17;;;;;;;10.00;3.28;;;4.60;99.90;;;;;;5064066;28;20204;-77
2023/11/25 03:28:44;;;;;;;4.72;1.30;;;4.60;99.90;;;;;;5069770;28;20255;-77
2023/11/25 03:31:12;;;;;;;4.55;1.27;;;4.60;99.90;;;;;;5062237;28;20257;-77
2023/11/25 03:33:38;;;;;;;7.88;1.50;;;4.60;99.90;;;;;;5052563;28;20259;-77
2023/11/25 03:36:04;;;;;;;6.23;2.00;;;4.60;99.90;;;;;;5069730;28;20278;-77
2023/11/25 03:38:30;;;;;;;6.90;1.85;;;4.60;99.90;;;;;;5061448;28;20613;-77
2023/11/25 03:40:56;;;;;;;5.73;1.73;;;4.60;99.90;;;;;;5069531;28;20829;-77
2023/11/25 03:43:23;;;;;;;4.72;1.00;;;4.60;99.90;;;;;;5069101;28;20179;-77
2023/11/25 03:45:50;;;;;;;5.70;1.25;;;4.60;99.90;;;;;;5056516;28;20265;-77
2023/11/25 03:48:16;;;;;;;6.07;1.35;;;4.60;99.90;;;;;;5066004;28;20187;-77
2023/11/25 03:50:42;;;;;;;4.32;1.30;;;4.60;99.90;;;;;;5070561;28;20172;-77
2023/11/25 03:53:08;;;;;;;3.70;0.90;;;4.60;99.90;;;;;;5069806;28;20168;-77
2023/11/25 03:55:34;;;;;;;7.83;2.00;;;4.60;99.90;;;;;;5052323;28;20212;-77
2023/11/25 03:58:01;;;;;;;8.00;2.00;;;4.60;99.90;;;;;;5063215;28;20222;-77
2023/11/25 04:00:27;;;;;;;9.52;1.90;;;4.60;99.90;;;;;;5049175;28;21016;-78
2023/11/25 04:02:53;;;;;;;5.20;1.30;;;4.70;99.90;;;;;;5034421;28;20185;-77
2023/11/25 04:05:20;;;;;;;6.32;1.67;;;4.70;99.90;;;;;;5032396;28;20204;-77
2023/11/25 04:07:46;;;;;;;7.93;1.92;;;4.70;99.90;;;;;;5054885;28;20207;-78
2023/11/25 04:10:12;;;;;;;15.68;2.20;;;4.70;99.90;;;;;;5064968;28;20255;-77
2023/11/25 04:12:40;;;;;;;10.27;1.95;;;4.80;99.90;;;;;;5052633;28;20164;-77
2023/11/25 04:15:08;;;;;;;7.43;1.60;;;4.80;99.90;;;;;;5069196;28;20257;-77
2023/11/25 04:17:34;;;;;;;8.85;2.20;;;4.80;99.90;;;;;;5052276;28;20214;-77
2023/11/25 04:20:00;;;;;;;9.77;1.75;;;4.90;99.90;;;;;;5069397;28;20181;-77
2023/11/25 04:22:26;;;;;;;12.25;2.42;;;5.00;99.90;;;;;;5060644;28;20275;-77
2023/11/25 04:24:53;;;;;;;6.17;1.23;;;5.00;99.90;;;;;;5048993;28;20295;-77
2023/11/25 04:27:21;;;;;;;9.35;1.83;;;5.10;99.90;;;;;;5032490;28;20177;-78
2023/11/25 04:29:47;;;;;;;8.15;1.67;;;5.20;99.90;;;;;;5061502;28;20237;-78
2023/11/25 04:32:12;;;;;;;3.90;1.52;;;5.20;99.90;;;;;;5065792;28;20181;-77
2023/11/25 04:34:38;;;;;;;3.27;1.67;;;5.30;99.90;;;;;;5067189;28;20206;-77
2023/11/25 04:37:04;;;;;;;5.43;1.97;;;5.30;99.90;;;;;;5078977;28;20181;-76
2023/11/25 04:39:30;;;;;;;7.88;1.40;;;5.30;99.90;;;;;;5044243;22;20590;-75
2023/11/25 04:41:56;;;;;;;8.97;1.57;;;5.30;99.90;;;;;;5022303;28;20166;-75
2023/11/25 04:44:21;;;;;;;8.50;1.40;;;5.30;99.90;;;;;;5036827;28;21195;-75
2023/11/25 04:46:47;;;;;;;6.70;1.47;;;5.30;99.90;;;;;;5004591;28;20224;-75
2023/11/25 04:49:13;;;;;;;5.93;1.27;;;5.30;99.90;;;;;;5030212;28;20283;-76
2023/11/25 04:51:38;;;;;;;7.60;1.90;;;5.30;99.90;;;;;;5028600;28;20257;-76
2023/11/25 04:54:04;;;;;;;3.73;1.00;;;5.40;99.90;;;;;;4994361;28;20565;-76
2023/11/25 04:56:30;;;;;;;5.83;2.10;;;5.40;99.90;;;;;;5011947;28;20208;-75
2023/11/25 04:58:56;;;;;;;7.40;1.50;;;5.30;99.90;;;;;;5032616;28;21214;-76
2023/11/25 05:01:22;;;;;;;5.75;1.20;;;5.30;99.90;;;;;;5033453;28;21156;-76
2023/11/25 05:03:48;;;;;;;6.03;1.40;;;5.30;99.90;;;;;;5032503;28;20205;-76
2023/11/25 05:06:13;;;;;;;8.67;1.50;;;5.30;99.90;;;;;;5021610;28;20637;-76
2023/11/25 05:08:39;;;;;;;9.10;1.10;;;5.30;99.90;;;;;;5031299;28;20205;-77
2023/11/25 05:11:05;;;;;;;8.93;1.50;;;5.40;99.90;;;;;;5015742;28;20658;-77
2023/11/25 05:13:32;;;;;;;4.78;1.40;;;5.30;99.90;;;;;;5024222;28;20589;-77
2023/11/25 05:16:00;;;;;;;5.30;1.10;;;5.30;99.90;;;;;;5032243;28;20177;-77
2023/11/25 05:18:26;;;;;;;4.80;1.48;;;5.30;99.90;;;;;;5023437;28;20197;-76
2023/11/25 05:20:52;;;;;;;4.13;1.47;;;5.30;99.90;;;;;;5033245;28;20654;-77
2023/11/25 05:23:17;;;;;;;5.30;1.50;;;5.30;99.90;;;;;;4999151;28;20635;-77
2023/11/25 05:25:43;;;;;;;10.90;1.83;;;5.30;99.90;;;;;;5031957;28;20201;-77
2023/11/25 05:28:09;;;;;;;4.87;1.10;;;5.30;99.90;;;;;;5031697;28;20224;-77
2023/11/25 05:30:34;;;;;;;7.13;1.10;;;5.30;99.90;;;;;;5031717;28;20697;-77
2023/11/25 05:33:00;;;;;;;7.73;2.07;;;5.40;99.90;;;;;;5032090;28;20260;-77
2023/11/25 05:35:26;;;;;;;5.05;1.30;;;5.40;99.90;;;;;;5031828;28;20200;-77
2023/11/25 05:37:53;;;;;;;3.60;1.53;;;5.40;99.90;;;;;;5032635;28;20174;-77
2023/11/25 05:40:18;;;;;;;4.93;1.20;;;5.50;99.90;;;;;;5032610;28;20220;-77
2023/11/25 05:42:52;;;;;;;4.77;1.30;;;5.50;99.90;;;;;;5020953;28;20334;-77
2023/11/25 05:45:20;;;;;;;4.78;1.35;;;5.60;99.90;;;;;;5031569;28;20347;-77
2023/11/25 05:47:46;;;;;;;4.28;1.20;;;5.60;99.90;;;;;;5031387;28;20252;-77
2023/11/25 05:50:15;;;;;;;9.13;1.35;;;5.70;99.90;;;;;;5015024;28;20170;-77
2023/11/25 05:52:41;;;;;;;10.98;2.00;;;5.70;99.90;;;;;;5031407;28;20182;-77
2023/11/25 05:55:06;;;;;;;3.10;0.90;;;5.80;99.90;;;;;;5029039;28;20217;-77
2023/11/25 05:57:32;;;;;;;8.53;1.00;;;5.80;99.90;;;;;;5031400;28;20561;-77
2023/11/25 05:59:58;;;;;;;9.63;1.47;;;5.80;99.90;;;;;;5031374;28;20204;-77
2023/11/25 06:02:23;;;;;;;7.90;1.47;;;5.90;99.90;;;;;;5032525;28;20174;-76
2023/11/25 06:04:49;;;;;;;9.57;1.60;;;5.90;99.90;;;;;;5031332;28;20182;-77
2023/11/25 06:07:15;;;;;;;4.83;1.60;;;5.90;99.90;;;;;;5030192;28;20178;-77
2023/11/25 06:09:40;;;;;;;5.40;1.77;;;6.00;99.90;;;;;;5031381;28;20201;-77
2023/11/25 06:12:09;;;;;;;3.80;0.90;;;6.00;99.90;;;;;;5030859;28;20166;-77
2023/11/25 06:14:36;;;;;;;10.05;2.25;;;6.00;99.90;;;;;;5021563;28;20242;-77
2023/11/25 06:17:03;;;;;;;11.88;2.10;;;6.10;99.90;;;;;;5007767;28;20177;-77
2023/11/25 06:19:31;;;;;;;8.57;1.40;;;6.10;99.90;;;;;;5032026;28;20208;-77
2023/11/25 06:21:58;;;;;;;6.20;1.50;;;6.10;99.90;;;;;;5031834;28;20579;-77
2023/11/25 06:24:25;;;;;;;8.02;1.70;;;6.10;99.90;;;;;;5014373;28;20265;-77
2023/11/25 06:26:50;;;;;;;10.23;1.40;;;6.10;99.90;;;;;;5018923;28;20198;-77
2023/11/25 06:29:16;;;;;;;12.43;2.07;;;6.20;99.90;;;;;;5025882;28;20190;-77
2023/11/25 06:31:45;;;;;;;11.80;1.47;;;6.20;99.90;;;;;;5020821;28;20181;-76
2023/11/25 06:34:11;;;;;;;11.95;3.40;;;6.20;99.90;;;;;;5014478;28;20178;-76
2023/11/25 06:36:36;;;;;;;10.20;2.13;;;6.20;99.90;;;;;;5029388;28;20181;-76
2023/11/25 06:39:04;;;;;;;8.10;2.50;;;6.30;99.90;;;;;;5007520;28;20307;-76
2023/11/25 06:41:30;;;;;;;7.18;1.73;;;6.30;99.90;;;;;;5009816;28;20186;-76
2023/11/25 06:43:55;;;;;;;4.13;2.03;;;6.30;99.90;;;;;;5030967;28;20174;-76
2023/11/25 06:46:22;;;;;;;5.00;1.67;;;6.40;99.90;;;;;;5030640;28;20201;-76
2023/11/25 06:48:48;;;;;;;6.82;1.38;;;6.40;99.90;;;;;;5027545;28;20198;-76
2023/11/25 06:51:13;;;;;;;11.00;1.50;;;6.40;99.90;;;;;;5025166;28;20174;-76
2023/11/25 06:53:39;;;;;;;5.90;1.87;;;6.50;99.90;;;;;;5029776;28;20539;-77
2023/11/25 06:56:09;;;;;;;6.00;1.80;;;6.50;99.90;;;;;;5024205;28;20178;-76
2023/11/25 06:58:38;;;;;;;5.97;1.75;;;6.60;99.90;;;;;;5013407;28;21010;-76
2023/11/25 07:01:04;;;;;;;5.35;1.75;;;6.60;99.90;;;;;;5026375;28;20590;-76
2023/11/25 07:03:30;;;;;;;5.93;1.67;;;6.60;99.90;;;;;;5010832;28;20181;-76
2023/11/25 07:05:59;;;;;;;9.88;1.83;;;6.60;99.90;;;;;;5013768;28;20747;-76
2023/11/25 07:08:25;;;;;;;6.47;1.90;;;6.60;99.90;;;;;;5030044;28;20623;-76
2023/11/25 07:10:53;;;;;;;4.60;1.30;;;6.60;99.90;;;;;;5029778;28;20277;-76
2023/11/25 07:13:23;;;;;;;6.80;2.28;;;6.60;99.90;;;;;;5013697;28;20996;-76
2023/11/25 07:15:49;;;;;;;6.85;2.90;;;6.60;99.90;;;;;;5031162;28;20185;-76
2023/11/25 07:18:14;;;;;;;5.63;2.20;;;6.60;99.90;;;;;;5021433;28;20573;-76
2023/11/25 07:20:40;;;;;;;9.53;3.03;;;6.70;99.90;;;;;;5025813;28;20178;-76
2023/11/25 07:23:06;;;;;;;13.83;2.90;;;6.70;99.90;;;;;;5013410;28;20670;-77
2023/11/25 07:25:32;;;;;;;9.47;2.07;;;6.70;99.90;;;;;;5004601;28;20201;-76
2023/11/25 07:27:58;;;;;;;10.45;2.17;;;6.70;99.90;;;;;;5013123;28;20166;-76
2023/11/25 07:30:23;;;;;;;8.30;1.87;;;6.70;99.90;;;;;;5021945;28;20200;-76
2023/11/25 07:32:49;;;;;;;7.00;2.07;;;6.70;99.90;;;;;;5013385;28;20181;-77
2023/11/25 07:35:15;;;;;;;8.27;2.47;;;6.70;99.90;;;;;;5024911;28;20186;-76
2023/11/25 07:37:41;;;;;;;10.07;1.47;;;6.70;99.90;;;;;;5027888;28;20177;-76
2023/11/25 07:40:17;;;;;;;6.03;1.67;;;6.60;99.90;;;;;;5029758;28;20197;-76
2023/11/25 07:42:48;;;;;;;5.18;1.75;;;6.60;99.90;;;;;;5031120;28;21187;-78
2023/11/25 07:45:13;;;;;;;4.53;1.30;;;6.60;99.90;;;;;;5029669;28;20563;-77
2023/11/25 07:47:43;;;;;;;6.72;1.30;;;6.60;99.90;;;;;;5029479;28;20201;-78
2023/11/25 07:50:10;;;;;;;4.28;1.40;;;6.60;99.90;;;;;;5029718;28;20256;-78
2023/11/25 07:52:36;;;;;;;7.82;1.38;;;6.60;99.90;;;;;;5028811;28;20188;-78
2023/11/25 07:55:06;;;;;;;8.65;3.17;;;6.60;99.90;;;;;;5029712;28;20178;-78
2023/11/25 07:57:32;;;;;;;8.70;2.45;;;6.60;99.90;;;;;;5031325;28;20205;-78
2023/11/25 07:59:58;;;;;;;8.32;2.08;;;6.60;99.90;;;;;;5030749;28;20193;-78
2023/11/25 08:02:24;;;;;;;4.97;1.77;;;6.60;99.90;;;;;;5013627;28;20185;-78
2023/11/25 08:04:50;;;;;;;8.63;2.00;;;6.60;99.90;;;;;;5029251;28;20642;-78
2023/11/25 08:07:16;;;;;;;9.38;1.42;;;6.70;99.90;;;;;;5017300;28;20596;-78
2023/11/25 08:09:42;;;;;;;7.87;1.70;;;6.70;99.90;;;;;;5011290;28;20686;-78
2023/11/25 08:12:09;;;;;;;5.20;2.13;;;6.80;99.90;;;;;;5022377;28;20676;-77
2023/11/25 08:14:35;;;;;;;7.25;3.47;;;6.90;99.90;;;;;;5012660;28;20198;-77
2023/11/25 08:17:02;;;;;;;7.07;2.42;;;7.00;99.90;;;;;;5029151;28;20178;-76
2023/11/25 08:19:28;;;;;;;8.77;2.95;;;7.00;99.90;;;;;;5028934;28;20251;-77
2023/11/25 08:21:54;;;;;;;8.17;2.93;;;7.10;99.90;;;;;;4992956;28;20170;-77
2023/11/25 08:24:19;;;;;;;11.93;4.30;;;7.10;99.90;;;;;;5025517;28;20587;-78
2023/11/25 08:26:46;;;;;;;9.73;3.30;;;7.20;99.90;;;;;;5025467;28;20204;-78
2023/11/25 08:29:12;;;;;;;6.00;2.45;;;7.20;99.90;;;;;;5030018;28;20551;-78
2023/11/25 08:31:38;;;;;;;7.60;2.67;;;7.20;99.90;;;;;;5032671;28;20209;-78
2023/11/25 08:34:07;;;;;;;5.60;2.03;;;7.20;99.90;;;;;;5033263;28;20169;-78
2023/11/25 08:36:32;;;;;;;6.55;2.17;;;7.30;99.90;;;;;;5033323;28;20181;-77
2023/11/25 08:39:01;;;;;;;7.93;2.40;;;7.30;99.90;;;;;;5032898;28;20220;-76
2023/11/25 08:41:29;;;;;;;7.82;2.25;;;7.30;99.90;;;;;;5032711;28;20182;-76
2023/11/25 08:43:58;;;;;;;5.25;2.10;;;7.40;99.90;;;;;;5016674;28;20169;-76
2023/11/25 08:46:25;;;;;;;8.70;2.33;;;7.40;99.90;;;;;;5034261;28;20304;-76
2023/11/25 08:48:51;;;;;;;5.30;2.50;;;7.40;99.90;;;;;;5032552;28;20682;-76
2023/11/25 08:51:17;;;;;;;10.57;2.20;;;7.40;99.90;;;;;;5032469;28;20180;-76
2023/11/25 08:53:44;;;;;;;3.90;2.00;;;7.40;99.90;;;;;;5031119;28;20204;-77
2023/11/25 08:56:11;;;;;;;6.60;1.45;;;7.40;99.90;;;;;;5032682;28;20560;-76
2023/11/25 08:58:37;;;;;;;3.80;1.55;;;7.40;99.90;;;;;;5015922;28;20206;-76
2023/11/25 09:01:02;;;;;;;6.00;1.83;;;7.40;99.90;;;;;;5015955;28;20227;-77
2023/11/25 09:03:28;;;;;;;5.70;1.23;;;7.40;99.90;;;;;;5032621;28;20182;-76
2023/11/25 09:05:54;;;;;;;6.70;2.20;;;7.40;99.90;;;;;;5032448;28;21208;-76
2023/11/25 09:08:20;;;;;;;7.70;2.00;;;7.40;99.90;;;;;;5032468;28;20628;-76
2023/11/25 09:10:45;;;;;;;6.77;2.43;;;7.30;99.90;;;;;;5032168;28;20585;-76
2023/11/25 09:13:11;;;;;;;9.97;3.13;;;7.30;99.90;;;;;;5034027;28;20545;-76
2023/11/25 09:15:37;;;;;;;8.97;3.93;;;7.30;99.90;;;;;;4999621;28;20185;-77
2023/11/25 09:18:06;;;;;;;10.33;4.13;;;7.40;99.90;;;;;;5032061;28;20612;-77
2023/11/25 09:20:33;;;;;;;7.30;4.03;;;7.40;99.90;;;;;;5016265;28;20732;-77
2023/11/25 09:22:59;;;;;;;7.45;2.90;;;7.40;99.90;;;;;;5031955;28;20176;-77
2023/11/25 09:25:24;;;;;;;9.13;3.30;;;7.60;99.90;;;;;;5032151;28;20280;-77
2023/11/25 09:27:52;;;;;;;6.43;2.77;;;7.70;99.90;;;;;;5015356;28;20603;-77
2023/11/25 09:30:18;;;;;;;9.73;2.85;;;7.90;99.90;;;;;;5032044;28;20181;-76
2023/11/25 09:32:44;;;;;;;9.25;2.22;;;8.00;99.90;;;;;;5007362;28;20178;-77
2023/11/25 09:35:11;;;;;;;5.90;2.83;;;8.10;99.90;;;;;;5032169;28;20775;-77
2023/11/25 09:37:41;;;;;;;5.20;1.80;;;8.20;99.90;;;;;;5033246;28;20173;-77
2023/11/25 09:40:14;;;;;;;5.10;1.40;;;8.30;99.90;;;;;;5031616;28;20190;-76
2023/11/25 09:42:45;;;;;;;7.70;1.45;;;8.40;99.90;;;;;;4983516;28;20612;-77
2023/11/25 09:45:11;;;;;;;5.57;1.27;;;8.50;99.90;;;;;;5031933;28;20198;-76
2023/11/25 09:47:43;;;;;;;5.35;1.05;;;8.50;99.90;;;;;;5031803;28;20251;-77
2023/11/25 09:50:10;;;;;;;5.43;1.00;;;8.60;99.90;;;;;;5031665;28;20177;-77
2023/11/25 09:52:52;;;;;;;4.85;1.20;;;8.60;99.90;;;;;;5031478;28;20158;-76
2023/11/25 09:55:22;;;;;;;6.43;2.40;;;8.60;99.90;;;;;;5013977;28;20263;-77
2023/11/25 09:57:50;;;;;;;9.73;2.10;;;8.70;99.90;;;;;;5031309;28;20224;-77
2023/11/25 10:00:17;;;;;;;7.68;1.80;;;8.70;99.90;;;;;;5031526;28;20177;-77
2023/11/25 10:02:44;;;;;;;5.35;1.40;;;8.80;99.90;;;;;;5031385;28;20182;-77
2023/11/25 10:05:11;;;;;;;4.75;1.95;;;8.80;99.90;;;;;;5027178;28;20237;-77
2023/11/25 10:07:37;;;;;;;9.80;2.10;;;8.90;99.90;;;;;;5003032;28;20639;-77
2023/11/25 10:10:04;;;;;;;5.32;1.30;;;8.90;99.90;;;;;;5014818;28;20272;-76
2023/11/25 10:12:30;;;;;;;5.75;1.80;;;9.00;99.90;;;;;;5031215;28;20260;-77
2023/11/25 10:14:59;;;;;;;10.03;1.47;;;9.00;99.90;;;;;;5031310;28;20639;-77
2023/11/25 10:17:25;;;;;;;4.70;1.58;;;9.00;99.90;;;;;;5031495;28;20580;-77
2023/11/25 10:20:16;;;;;;;5.80;2.17;;;9.10;99.90;;;;;;5030722;28;20203;-77
2023/11/25 10:22:46;;;;;;;8.05;2.33;;;9.10;99.90;;;;;;5014597;28;20185;-76
2023/11/25 10:25:12;;;;;;;10.07;2.22;;;9.30;99.90;;;;;;5030705;28;20201;-77
2023/11/25 10:27:38;;;;;;;5.80;2.57;;;9.40;99.90;;;;;;5031032;28;20184;-76
2023/11/25 10:30:08;;;;;;;4.53;1.95;;;9.40;99.90;;;;;;5011657;28;20705;-77
2023/11/25 10:32:34;;;;;;;4.32;1.70;;;9.40;99.90;;;;;;5022264;28;20239;-77
2023/11/25 10:35:00;;;;;;;4.43;1.60;;;9.40;99.90;;;;;;5014508;28;20296;-77
2023/11/25 10:37:27;;;;;;;4.20;1.38;;;9.40;99.90;;;;;;5030733;28;20169;-77
2023/11/25 10:39:53;;;;;;;4.53;1.20;;;9.50;99.90;;;;;;5030203;28;20244;-76
2023/11/25 10:42:19;;;;;;;4.30;1.55;;;9.60;99.90;;;;;;5024805;28;20619;-77
2023/11/25 10:44:47;;;;;;;6.00;1.38;;;9.60;99.90;;;;;;5030172;28;20189;-76
2023/11/25 10:47:30;;;;;;;4.40;1.05;;;9.70;99.90;;;;;;4994728;28;20188;-76
2023/11/25 10:49:56;;;;;;;3.13;1.30;;;9.90;99.90;;;;;;5011072;28;20198;-76
2023/11/25 10:52:23;;;;;;;4.33;1.10;;;10.00;99.90;;;;;;5010402;28;20539;-77
2023/11/25 10:54:50;;;;;;;3.83;1.63;;;10.00;99.90;;;;;;5009259;28;20593;-76
2023/11/25 10:57:18;;;;;;;5.63;1.75;;;10.00;99.90;;;;;;5010791;28;20202;-76
2023/11/25 10:59:45;;;;;;;7.97;1.20;;;10.10;99.90;;;;;;5010726;28;20240;-76
2023/11/25 11:02:44;;;;;;;8.38;1.55;;;10.20;99.90;;;;;;5010665;28;20580;-76
2023/11/25 11:05:14;;;;;;;2.90;1.35;;;10.30;99.90;;;;;;5010745;28;20212;-76
2023/11/25 11:07:48;;;;;;;6.88;1.63;;;10.30;99.90;;;;;;4994204;28;20522;-76
2023/11/25 11:10:20;;;;;;;5.60;1.25;;;10.30;99.90;;;;;;5010790;28;20193;-77
2023/11/25 11:12:58;;;;;;;2.83;1.10;;;10.30;99.90;;;;;;5010433;28;20577;-77
2023/11/25 11:15:27;;;;;;;3.45;1.27;;;10.30;99.90;;;;;;5010626;28;20190;-76
2023/11/25 11:18:27;;;;;;;3.03;1.40;;;10.30;99.90;;;;;;5009999;28;20270;-76
2023/11/25 11:20:55;;;;;;;4.95;1.90;;;10.20;99.90;;;;;;5010089;28;20170;-76
2023/11/25 11:23:22;;;;;;;2.92;0.93;;;10.20;99.90;;;;;;5011283;28;20540;-76
2023/11/25 11:26:17;;;;;;;7.45;3.05;;;10.20;99.90;;;;;;5010214;28;20213;-76
2023/11/25 11:29:10;;;;;;;2.92;1.65;;;10.10;99.90;;;;;;4993976;28;20241;-76
2023/11/25 11:31:59;;;;;;;7.97;1.65;;;10.20;99.90;;;;;;5010144;28;20181;-76
2023/11/25 11:34:30;;;;;;;3.67;1.10;;;10.10;99.90;;;;;;5010104;28;20201;-76
2023/11/25 11:36:56;;;;;;;3.47;1.27;;;10.20;99.90;;;;;;5011480;28;20186;-75
2023/11/25 11:39:32;;;;;;;4.73;1.20;;;10.20;99.90;;;;;;5009878;28;20217;-76
2023/11/25 11:42:32;;;;;;;3.70;1.52;;;10.20;99.90;;;;;;5009622;28;20581;-76
2023/11/25 11:45:27;;;;;;;4.55;1.30;;;10.10;99.90;;;;;;5009824;28;20644;-77
2023/11/25 11:47:58;;;;;;;3.92;1.35;;;10.10;99.90;;;;;;4993512;28;20175;-76
2023/11/25 11:50:32;;;;;;;3.97;2.05;;;10.10;99.90;;;;;;4993540;28;20175;-76
2023/11/25 11:53:01;;;;;;;3.95;1.27;;;10.00;99.90;;;;;;5009854;28;20679;-76
2023/11/25 11:55:34;;;;;;;6.13;2.50;;;10.00;99.90;;;;;;4993355;28;20603;-75
2023/11/25 11:58:08;;;;;;;7.82;1.73;;;10.10;99.90;;;;;;5009454;28;21454;-75
2023/11/25 12:00:43;;;;;;;6.35;2.42;;;10.10;99.90;;;;;;5009887;28;20189;-75
2023/11/25 12:03:09;;;;;;;9.15;3.33;;;10.10;99.90;;;;;;5009725;28;20568;-75
2023/11/25 12:05:35;;;;;;;10.90;4.20;;;10.10;99.90;;;;;;5010474;28;20213;-74
2023/11/25 12:08:02;;;;;;;3.63;2.25;;;10.10;99.90;;;;;;5010860;28;20605;-75
2023/11/25 12:10:28;;;;;;;4.40;1.20;;;10.10;99.90;;;;;;5010962;28;20616;-75
2023/11/25 12:12:53;;;;;;;4.80;1.23;;;10.00;99.90;;;;;;5011087;28;20178;-76
2023/11/25 12:15:20;;;;;;;5.83;2.50;;;10.00;99.90;;;;;;4993527;28;21154;-76
2023/11/25 12:17:46;;;;;;;5.50;1.85;;;9.80;99.90;;;;;;5010206;28;20245;-76
2023/11/25 12:20:14;;;;;;;2.65;1.25;;;9.80;99.90;;;;;;5010310;28;20269;-76
2023/11/25 12:22:41;;;;;;;5.22;1.23;;;9.60;99.90;;;;;;5009599;28;20229;-75
2023/11/25 12:25:16;;;;;;;3.72;1.00;;;9.50;99.90;;;;;;5010203;28;20201;-76
2023/11/25 12:28:08;;;;;;;6.35;1.10;;;9.50;99.90;;;;;;5008181;28;20228;-75
2023/11/25 12:30:38;;;;;;;3.70;1.00;;;9.40;99.90;;;;;;5009525;28;20174;-76
2023/11/25 12:33:07;;;;;;;7.43;1.20;;;9.30;99.90;;;;;;5009564;28;20178;-76
2023/11/25 12:35:40;;;;;;;5.38;1.40;;;9.20;99.90;;;;;;5011223;28;20233;-76
2023/11/25 12:38:07;;;;;;;3.20;1.23;;;9.20;99.90;;;;;;4993265;28;20557;-76
2023/11/25 12:40:34;;;;;;;6.05;1.83;;;9.10;99.90;;;;;;5009932;28;20182;-76
2023/11/25 12:43:02;;;;;;;4.10;1.80;;;9.10;99.90;;;;;;5011506;28;20183;-76
2023/11/25 12:45:34;;;;;;;6.20;1.08;;;9.10;99.90;;;;;;4993972;28;20190;-76
2023/11/25 12:48:02;;;;;;;3.75;1.10;;;9.10;99.90;;;;;;5009878;28;20178;-75
2023/11/25 12:50:29;;;;;;;10.52;3.25;;;9.20;99.90;;;;;;5009893;28;20185;-76
2023/11/25 12:53:10;;;;;;;2.75;1.00;;;9.20;99.90;;;;;;5010097;28;20174;-76
2023/11/25 12:55:45;;;;;;;9.15;3.33;;;9.20;99.90;;;;;;5009838;28;20537;-76
2023/11/25 12:58:17;;;;;;;4.40;1.63;;;9.20;99.90;;;;;;5009858;28;20260;-76